Time;durP1;ratioP1;P1;durP2;ratioP2;P2;SDS_P1;SDS_P2;PMS_P1;PMS_P2;Temp;Humidity;BMP_temperature;BMP_pressure;BME280_temperature;BME280_humidity;BME280_pressure;Samples;Min_cycle;Max_cycle;Signal;HPM_P1;HPM_P2
2023/05/13 00:01:05;;;;;;;29.90;26.73;;;;;;;;;;4957261;28;20023;-77
2023/05/13 00:03:31;;;;;;;42.22;35.45;;;;;;;;;;4951445;28;20118;-75
2023/05/13 00:05:56;;;;;;;49.25;40.20;;;;;;;;;;4953291;28;20107;-77
2023/05/13 00:08:21;;;;;;;36.22;29.40;;;;;;;;;;4944997;28;20027;-77
2023/05/13 00:10:47;;;;;;;28.25;24.38;;;;;;;;;;4953396;28;20058;-78
2023/05/13 00:13:12;;;;;;;36.47;27.23;;;;;;;;;;4954728;28;20042;-77
2023/05/13 00:15:39;;;;;;;37.67;27.60;;;;;;;;;;4954061;28;20058;-78
2023/05/13 00:18:04;;;;;;;31.15;26.13;;;;;;;;;;4945445;28;20019;-76
2023/05/13 00:20:29;;;;;;;38.20;28.65;;;;;;;;;;4954456;28;20035;-77
2023/05/13 00:22:55;;;;;;;36.15;28.73;;;;;;;;;;4954224;28;20098;-77
2023/05/13 00:25:20;;;;;;;43.13;32.65;;;;;;;;;;4956483;28;20443;-77
2023/05/13 00:27:45;;;;;;;30.98;27.13;;;;;;;;;;4952727;28;20034;-76
2023/05/13 00:30:11;;;;;;;32.95;29.45;;;;;;;;;;4945167;28;20418;-75
2023/05/13 00:32:36;;;;;;;29.42;26.27;;;;;;;;;;4944703;28;20024;-77
2023/05/13 00:35:02;;;;;;;34.40;30.70;;;;;;;;;;4954077;28;20035;-77
2023/05/13 00:37:28;;;;;;;31.10;28.05;;;;;;;;;;4952760;28;20022;-76
2023/05/13 00:39:53;;;;;;;32.40;27.65;;;;;;;;;;4953959;28;20093;-77
2023/05/13 00:42:18;;;;;;;28.33;25.42;;;;;;;;;;4943966;28;20066;-77
2023/05/13 00:44:44;;;;;;;25.52;22.85;;;;;;;;;;4951514;28;20462;-77
2023/05/13 00:47:10;;;;;;;23.67;21.23;;;;;;;;;;4948811;28;20041;-77
2023/05/13 00:49:36;;;;;;;20.20;18.27;;;;;;;;;;4950479;28;20062;-77
2023/05/13 00:52:01;;;;;;;19.30;17.08;;;;;;;;;;4952868;28;20070;-77
2023/05/13 00:54:27;;;;;;;18.10;16.35;;;;;;;;;;4954074;28;20027;-77
2023/05/13 00:56:55;;;;;;;16.33;14.80;;;;;;;;;;4959203;28;20059;-78
2023/05/13 00:59:21;;;;;;;15.40;13.95;;;;;;;;;;4959297;28;20355;-76
2023/05/13 01:01:50;;;;;;;15.07;13.57;;;;;;;;;;4959192;28;20041;-76
2023/05/13 01:04:19;;;;;;;16.75;14.75;;;;;;;;;;4956313;28;20435;-76
2023/05/13 01:06:44;;;;;;;15.98;14.60;;;;;;;;;;4953675;28;20105;-76
2023/05/13 01:09:17;;;;;;;14.93;13.52;;;;;;;;;;4949991;28;20103;-77
2023/05/13 01:11:43;;;;;;;14.25;12.85;;;;;;;;;;4946391;28;20031;-78
2023/05/13 01:14:11;;;;;;;17.80;14.02;;;;;;;;;;4958111;28;20038;-77
2023/05/13 01:16:49;;;;;;;16.38;13.77;;;;;;;;;;4958738;28;20031;-76
2023/05/13 01:19:17;;;;;;;14.73;12.77;;;;;;;;;;4952641;28;20031;-78
2023/05/13 01:21:50;;;;;;;14.93;12.93;;;;;;;;;;4952899;28;20031;-76
2023/05/13 01:24:15;;;;;;;15.38;13.65;;;;;;;;;;4950493;28;20036;-77
2023/05/13 01:26:41;;;;;;;14.75;13.32;;;;;;;;;;4958383;28;20462;-75
2023/05/13 01:29:06;;;;;;;15.55;14.05;;;;;;;;;;4955003;28;20421;-78
2023/05/13 01:31:32;;;;;;;16.48;13.90;;;;;;;;;;4954615;28;20082;-77
2023/05/13 01:33:57;;;;;;;17.67;15.02;;;;;;;;;;4959223;28;20034;-77
2023/05/13 01:36:23;;;;;;;29.00;23.95;;;;;;;;;;4956591;28;20023;-77
2023/05/13 01:38:49;;;;;;;25.35;21.40;;;;;;;;;;4952038;28;20087;-77
2023/05/13 01:41:14;;;;;;;26.40;22.08;;;;;;;;;;4957097;28;20085;-75
2023/05/13 01:43:39;;;;;;;26.05;22.63;;;;;;;;;;4948900;28;20061;-75
2023/05/13 01:46:10;;;;;;;29.92;23.85;;;;;;;;;;4953530;28;20023;-75
2023/05/13 01:48:35;;;;;;;30.88;24.38;;;;;;;;;;4948017;28;20051;-75
2023/05/13 01:51:01;;;;;;;24.17;21.13;;;;;;;;;;4973337;28;20038;-76
2023/05/13 01:53:26;;;;;;;33.45;27.25;;;;;;;;;;4956884;28;20027;-77
2023/05/13 01:55:52;;;;;;;28.08;23.55;;;;;;;;;;4952975;28;20463;-76
2023/05/13 01:58:17;;;;;;;22.92;20.52;;;;;;;;;;4952777;28;20027;-78
2023/05/13 02:00:42;;;;;;;27.90;24.20;;;;;;;;;;4945973;28;20134;-76
2023/05/13 02:03:08;;;;;;;29.35;25.85;;;;;;;;;;4954497;28;20340;-75
2023/05/13 02:05:33;;;;;;;26.08;21.75;;;;;;;;;;4952999;28;20027;-76
2023/05/13 02:07:58;;;;;;;30.73;24.10;;;;;;;;;;4953513;28;21030;-77
2023/05/13 02:10:24;;;;;;;34.45;25.05;;;;;;;;;;4959248;28;20073;-77
2023/05/13 02:12:49;;;;;;;33.17;26.83;;;;;;;;;;4947694;28;20118;-78
2023/05/13 02:15:15;;;;;;;25.10;22.35;;;;;;;;;;4954433;28;20363;-75
2023/05/13 02:17:40;;;;;;;24.50;21.90;;;;;;;;;;4947499;28;20043;-79
2023/05/13 02:20:06;;;;;;;23.45;21.02;;;;;;;;;;4952326;28;20121;-75
2023/05/13 02:22:31;;;;;;;27.58;23.35;;;;;;;;;;4953964;28;20131;-76
2023/05/13 02:24:56;;;;;;;33.25;26.70;;;;;;;;;;4972073;28;20129;-76
2023/05/13 02:27:22;;;;;;;30.23;25.73;;;;;;;;;;4954502;28;20023;-77
2023/05/13 02:29:48;;;;;;;29.02;25.42;;;;;;;;;;4953429;28;20042;-75
2023/05/13 02:32:13;;;;;;;26.25;22.90;;;;;;;;;;4957703;28;20039;-75
2023/05/13 02:34:38;;;;;;;24.38;20.98;;;;;;;;;;4954745;28;20340;-75
2023/05/13 02:37:04;;;;;;;23.42;20.25;;;;;;;;;;4956272;28;20023;-75
2023/05/13 02:39:30;;;;;;;21.70;19.50;;;;;;;;;;4957340;28;20034;-76
2023/05/13 02:41:56;;;;;;;21.00;18.75;;;;;;;;;;4954779;28;20253;-76
2023/05/13 02:44:21;;;;;;;21.30;19.17;;;;;;;;;;4950061;28;20106;-75
2023/05/13 02:46:46;;;;;;;25.00;21.65;;;;;;;;;;4949986;28;20261;-76
2023/05/13 02:49:12;;;;;;;23.70;21.40;;;;;;;;;;4955751;28;20145;-75
2023/05/13 02:51:38;;;;;;;25.30;21.17;;;;;;;;;;4956900;28;20037;-77
2023/05/13 02:54:03;;;;;;;21.08;19.00;;;;;;;;;;4952168;28;20023;-76
2023/05/13 02:56:28;;;;;;;23.10;20.75;;;;;;;;;;4943635;28;20027;-77
2023/05/13 02:58:54;;;;;;;20.77;18.58;;;;;;;;;;4962021;28;20094;-75
2023/05/13 03:01:19;;;;;;;19.25;17.38;;;;;;;;;;4951589;28;20042;-76
2023/05/13 03:03:45;;;;;;;18.50;16.77;;;;;;;;;;4955529;28;20042;-75
2023/05/13 03:06:10;;;;;;;19.27;17.13;;;;;;;;;;4947982;28;20085;-76
2023/05/13 03:08:35;;;;;;;21.88;19.10;;;;;;;;;;4947283;28;20476;-76
2023/05/13 03:11:01;;;;;;;25.58;20.45;;;;;;;;;;4945305;28;20039;-76
2023/05/13 03:13:26;;;;;;;25.70;20.77;;;;;;;;;;4945873;28;20038;-76
2023/05/13 03:15:51;;;;;;;23.70;18.73;;;;;;;;;;4955039;28;20030;-77
2023/05/13 03:18:17;;;;;;;22.65;19.10;;;;;;;;;;4954081;28;20030;-77
2023/05/13 03:20:42;;;;;;;21.50;19.13;;;;;;;;;;4954985;28;20164;-77
2023/05/13 03:23:07;;;;;;;24.45;20.30;;;;;;;;;;4970647;28;20037;-76
2023/05/13 03:25:33;;;;;;;62.63;39.20;;;;;;;;;;4955028;28;20023;-74
2023/05/13 03:27:58;;;;;;;92.20;56.30;;;;;;;;;;4955383;28;21391;-76
2023/05/13 03:30:24;;;;;;;56.88;38.05;;;;;;;;;;4953220;28;20518;-75
2023/05/13 03:32:49;;;;;;;29.45;22.52;;;;;;;;;;4953266;28;20034;-78
2023/05/13 03:35:14;;;;;;;20.42;18.30;;;;;;;;;;4949051;28;20073;-76
2023/05/13 03:37:40;;;;;;;21.08;18.60;;;;;;;;;;4951878;28;20066;-75
2023/05/13 03:40:06;;;;;;;20.83;18.67;;;;;;;;;;4949403;28;20129;-77
2023/05/13 03:42:31;;;;;;;21.08;19.00;;;;;;;;;;4945925;28;20387;-76
2023/05/13 03:44:57;;;;;;;21.48;19.17;;;;;;;;;;4956129;28;20433;-77
2023/05/13 03:47:22;;;;;;;21.63;19.42;;;;;;;;;;4953204;28;20033;-77
2023/05/13 03:49:48;;;;;;;22.75;20.35;;;;;;;;;;4954932;28;20030;-76
2023/05/13 03:52:15;;;;;;;22.13;19.92;;;;;;;;;;4947212;28;20525;-76
2023/05/13 03:54:40;;;;;;;20.83;18.65;;;;;;;;;;4952026;28;20034;-76
2023/05/13 03:57:06;;;;;;;17.20;15.48;;;;;;;;;;4956633;28;20125;-75
2023/05/13 03:59:32;;;;;;;19.13;17.13;;;;;;;;;;4954616;28;20023;-77
2023/05/13 04:01:57;;;;;;;19.38;17.48;;;;;;;;;;4955092;28;20493;-77
2023/05/13 04:04:22;;;;;;;17.95;16.25;;;;;;;;;;4955392;28;20122;-76
2023/05/13 04:06:48;;;;;;;17.67;15.88;;;;;;;;;;4954454;28;20043;-77
2023/05/13 04:09:13;;;;;;;19.25;17.35;;;;;;;;;;4953092;28;20110;-77
2023/05/13 04:11:39;;;;;;;19.15;17.15;;;;;;;;;;4949542;28;20028;-77
2023/05/13 04:14:04;;;;;;;21.88;19.70;;;;;;;;;;4942277;28;20031;-75
2023/05/13 04:16:30;;;;;;;24.80;21.95;;;;;;;;;;4950437;28;20362;-77
2023/05/13 04:18:55;;;;;;;29.35;25.13;;;;;;;;;;4951490;28;20451;-75
2023/05/13 04:21:21;;;;;;;28.55;24.52;;;;;;;;;;4957808;28;20122;-76
2023/05/13 04:23:46;;;;;;;23.48;20.98;;;;;;;;;;4952312;28;20045;-77
2023/05/13 04:26:12;;;;;;;22.48;20.23;;;;;;;;;;4955937;28;20030;-76
2023/05/13 04:28:37;;;;;;;23.05;19.00;;;;;;;;;;4953293;28;20022;-77
2023/05/13 04:31:02;;;;;;;22.48;20.08;;;;;;;;;;4956536;28;20062;-76
2023/05/13 04:33:28;;;;;;;21.25;19.15;;;;;;;;;;4961670;28;20034;-75
2023/05/13 04:35:53;;;;;;;20.60;18.70;;;;;;;;;;4956985;28;20442;-77
2023/05/13 04:38:18;;;;;;;23.90;21.50;;;;;;;;;;4959623;28;20384;-76
2023/05/13 04:40:44;;;;;;;27.65;24.60;;;;;;;;;;4960304;28;20481;-75
2023/05/13 04:43:10;;;;;;;27.30;24.38;;;;;;;;;;4959394;28;20089;-75
2023/05/13 04:45:35;;;;;;;27.45;24.65;;;;;;;;;;4957725;28;20030;-77
2023/05/13 04:48:01;;;;;;;31.20;28.00;;;;;;;;;;4960044;28;20089;-75
2023/05/13 04:50:26;;;;;;;26.20;23.60;;;;;;;;;;4961661;28;20066;-76
2023/05/13 04:52:53;;;;;;;27.35;22.52;;;;;;;;;;4957813;28;20054;-76
2023/05/13 04:55:19;;;;;;;34.22;26.13;;;;;;;;;;4957621;28;20038;-75
2023/05/13 04:57:44;;;;;;;27.50;23.95;;;;;;;;;;4958160;28;20030;-77
2023/05/13 05:00:10;;;;;;;29.52;26.10;;;;;;;;;;4958251;28;20030;-77
2023/05/13 05:02:36;;;;;;;54.47;39.60;;;;;;;;;;4958853;28;20441;-75
2023/05/13 05:05:01;;;;;;;32.88;28.83;;;;;;;;;;4955812;28;20031;-76
2023/05/13 05:07:26;;;;;;;29.27;23.92;;;;;;;;;;4959431;28;20407;-78
2023/05/13 05:09:52;;;;;;;26.02;23.23;;;;;;;;;;4974515;28;20039;-76
2023/05/13 05:12:17;;;;;;;21.55;19.38;;;;;;;;;;4953928;28;20063;-77
2023/05/13 05:14:42;;;;;;;29.73;26.48;;;;;;;;;;4954090;28;20046;-77
2023/05/13 05:17:08;;;;;;;34.55;30.75;;;;;;;;;;4954819;28;20027;-75
2023/05/13 05:19:33;;;;;;;26.90;24.10;;;;;;;;;;4947218;28;20034;-76
2023/05/13 05:21:58;;;;;;;25.58;22.90;;;;;;;;;;4958416;28;20031;-77
2023/05/13 05:24:24;;;;;;;25.05;22.35;;;;;;;;;;4958065;28;20059;-77
2023/05/13 05:26:50;;;;;;;24.17;21.67;;;;;;;;;;4960541;28;20665;-75
2023/05/13 05:29:15;;;;;;;29.30;25.00;;;;;;;;;;4958891;28;20511;-76
2023/05/13 05:31:40;;;;;;;34.80;27.00;;;;;;;;;;4958916;28;20066;-75
2023/05/13 05:34:06;;;;;;;30.92;24.85;;;;;;;;;;4959963;28;20034;-75
2023/05/13 05:36:32;;;;;;;28.27;23.23;;;;;;;;;;4955860;28;20038;-76
2023/05/13 05:38:57;;;;;;;26.02;23.20;;;;;;;;;;4957493;28;20351;-75
2023/05/13 05:41:22;;;;;;;23.70;21.20;;;;;;;;;;4958259;28;20825;-74
2023/05/13 05:43:48;;;;;;;28.58;23.48;;;;;;;;;;4956734;28;20089;-78
2023/05/13 05:46:13;;;;;;;37.47;28.20;;;;;;;;;;4945615;28;20441;-74
2023/05/13 05:48:39;;;;;;;19.70;16.50;;;;;;;;;;4945790;28;20031;-75
2023/05/13 05:51:04;;;;;;;35.42;25.20;;;;;;;;;;4945246;28;20038;-75
2023/05/13 05:53:30;;;;;;;62.22;39.25;;;;;;;;;;4944712;28;20089;-75
2023/05/13 05:55:56;;;;;;;30.50;24.02;;;;;;;;;;4939050;28;20046;-74
2023/05/13 05:58:21;;;;;;;18.27;16.30;;;;;;;;;;4947226;28;20066;-75
2023/05/13 06:00:47;;;;;;;18.85;13.40;;;;;;;;;;4956523;28;20444;-73
2023/05/13 06:03:12;;;;;;;13.82;12.55;;;;;;;;;;4955140;28;20455;-75
2023/05/13 06:05:38;;;;;;;18.00;15.98;;;;;;;;;;4954674;28;20511;-74
2023/05/13 06:08:03;;;;;;;14.55;13.15;;;;;;;;;;4941548;28;20042;-75
2023/05/13 06:10:28;;;;;;;13.93;12.52;;;;;;;;;;4950622;28;20049;-74
2023/05/13 06:12:54;;;;;;;14.45;12.95;;;;;;;;;;4958665;28;20039;-75
2023/05/13 06:15:19;;;;;;;15.32;13.75;;;;;;;;;;4953164;28;20054;-75
2023/05/13 06:17:45;;;;;;;15.90;13.93;;;;;;;;;;4958187;28;20031;-75
2023/05/13 06:20:10;;;;;;;14.18;12.18;;;;;;;;;;4954048;28;20138;-75
2023/05/13 06:22:36;;;;;;;15.05;12.90;;;;;;;;;;4953331;28;20034;-75
2023/05/13 06:25:01;;;;;;;34.33;26.25;;;;;;;;;;4954528;28;20030;-76
2023/05/13 06:27:26;;;;;;;16.80;15.10;;;;;;;;;;4956846;28;20392;-75
2023/05/13 06:29:52;;;;;;;24.80;22.10;;;;;;;;;;4956167;28;20066;-75
2023/05/13 06:32:17;;;;;;;111.32;83.68;;;;;;;;;;4947475;28;20027;-74
2023/05/13 06:34:44;;;;;;;27.35;21.73;;;;;;;;;;4945564;28;20025;-74
2023/05/13 06:37:10;;;;;;;27.70;20.77;;;;;;;;;;4944917;28;20035;-74
2023/05/13 06:39:35;;;;;;;28.90;23.40;;;;;;;;;;4943824;28;20459;-73
2023/05/13 06:42:01;;;;;;;28.63;24.42;;;;;;;;;;4941912;28;20050;-74
2023/05/13 06:44:26;;;;;;;17.83;15.45;;;;;;;;;;4941771;28;20030;-74
2023/05/13 06:46:51;;;;;;;61.45;54.30;;;;;;;;;;4939613;28;20070;-74
2023/05/13 06:49:17;;;;;;;28.27;25.35;;;;;;;;;;4944697;28;20038;-75
2023/05/13 06:51:42;;;;;;;28.20;25.10;;;;;;;;;;4944136;28;20030;-73
2023/05/13 06:54:08;;;;;;;17.27;15.50;;;;;;;;;;4946378;28;20346;-74
2023/05/13 06:56:33;;;;;;;17.38;15.55;;;;;;;;;;4943155;28;20101;-74
2023/05/13 06:58:59;;;;;;;14.00;12.70;;;;;;;;;;4946451;28;20034;-74
2023/05/13 07:01:24;;;;;;;12.50;11.38;;;;;;;;;;4940781;28;20035;-75
2023/05/13 07:03:49;;;;;;;12.65;11.55;;;;;;;;;;4934741;28;20404;-74
2023/05/13 07:06:15;;;;;;;13.70;12.40;;;;;;;;;;4935515;28;20375;-73
2023/05/13 07:08:40;;;;;;;14.18;12.45;;;;;;;;;;4936911;28;20035;-75
2023/05/13 07:11:05;;;;;;;13.30;11.88;;;;;;;;;;4942092;28;20291;-74
2023/05/13 07:13:33;;;;;;;23.08;20.98;;;;;;;;;;4954222;28;20038;-75
2023/05/13 07:15:59;;;;;;;16.45;14.68;;;;;;;;;;4953842;28;20031;-71
2023/05/13 07:18:24;;;;;;;11.75;10.55;;;;;;;;;;4954337;28;20086;-71
2023/05/13 07:20:50;;;;;;;12.05;10.95;;;;;;;;;;4941441;28;20478;-71
2023/05/13 07:23:15;;;;;;;12.85;10.82;;;;;;;;;;4936952;28;20042;-74
2023/05/13 07:25:41;;;;;;;12.32;10.90;;;;;;;;;;4938537;28;20031;-72
2023/05/13 07:28:07;;;;;;;14.65;12.07;;;;;;;;;;4946033;28;20779;-78
2023/05/13 07:30:32;;;;;;;14.35;11.85;;;;;;;;;;4941070;28;20146;-77
2023/05/13 07:32:57;;;;;;;12.77;11.48;;;;;;;;;;4942710;28;20035;-76
2023/05/13 07:35:23;;;;;;;15.57;12.57;;;;;;;;;;4940255;28;20039;-77
2023/05/13 07:37:48;;;;;;;11.50;10.50;;;;;;;;;;4939351;28;20030;-75
2023/05/13 07:40:14;;;;;;;11.27;10.18;;;;;;;;;;4940760;28;20034;-76
2023/05/13 07:42:39;;;;;;;10.57;9.65;;;;;;;;;;4939552;28;20062;-75
2023/05/13 07:45:05;;;;;;;12.23;10.55;;;;;;;;;;4953432;28;20427;-72
2023/05/13 07:47:32;;;;;;;13.05;11.43;;;;;;;;;;4954117;28;20026;-72
2023/05/13 07:49:57;;;;;;;11.48;10.25;;;;;;;;;;4950785;28;20042;-72
2023/05/13 07:52:23;;;;;;;11.60;10.55;;;;;;;;;;4936755;28;20042;-73
2023/05/13 07:54:48;;;;;;;13.73;10.68;;;;;;;;;;4946223;28;20090;-72
2023/05/13 07:57:14;;;;;;;12.73;11.25;;;;;;;;;;4950095;28;20474;-72
2023/05/13 07:59:39;;;;;;;11.90;10.70;;;;;;;;;;4955444;28;20027;-74
2023/05/13 08:02:05;;;;;;;13.85;11.90;;;;;;;;;;4952480;28;20039;-73
2023/05/13 08:04:30;;;;;;;12.20;10.35;;;;;;;;;;4951253;28;20031;-72
2023/05/13 08:06:56;;;;;;;12.27;9.50;;;;;;;;;;4954628;28;20147;-72
2023/05/13 08:09:21;;;;;;;14.73;11.25;;;;;;;;;;4950821;28;20493;-72
2023/05/13 08:11:46;;;;;;;11.50;10.23;;;;;;;;;;4954503;28;20363;-72
2023/05/13 08:14:12;;;;;;;14.82;11.25;;;;;;;;;;4949417;28;20095;-72
2023/05/13 08:16:37;;;;;;;13.43;10.70;;;;;;;;;;4952380;28;20105;-72
2023/05/13 08:19:02;;;;;;;14.05;9.98;;;;;;;;;;4954730;28;20047;-72
2023/05/13 08:21:28;;;;;;;11.15;9.88;;;;;;;;;;4954418;28;20439;-72
2023/05/13 08:23:54;;;;;;;10.77;9.65;;;;;;;;;;4954887;28;20039;-73
2023/05/13 08:26:19;;;;;;;14.07;11.13;;;;;;;;;;4954003;28;20049;-72
2023/05/13 08:28:45;;;;;;;11.82;10.50;;;;;;;;;;4952340;28;20716;-72
2023/05/13 08:31:13;;;;;;;12.18;9.85;;;;;;;;;;4953162;28;20038;-72
2023/05/13 08:33:40;;;;;;;17.00;8.85;;;;;;;;;;4952398;28;20037;-72
2023/05/13 08:36:06;;;;;;;12.88;9.40;;;;;;;;;;4952161;28;20045;-71
2023/05/13 08:38:32;;;;;;;11.35;9.23;;;;;;;;;;4956405;28;20023;-72
2023/05/13 08:40:58;;;;;;;9.07;8.07;;;;;;;;;;4955224;28;20054;-72
2023/05/13 08:43:23;;;;;;;9.02;8.07;;;;;;;;;;4952198;28;20346;-75
2023/05/13 08:45:50;;;;;;;11.00;7.68;;;;;;;;;;4952960;28;20027;-73
2023/05/13 08:48:16;;;;;;;10.32;8.40;;;;;;;;;;4951641;28;20031;-72
2023/05/13 08:50:42;;;;;;;11.32;8.68;;;;;;;;;;4954469;28;20458;-72
2023/05/13 08:53:08;;;;;;;10.95;8.57;;;;;;;;;;4951246;28;20058;-71
2023/05/13 08:55:34;;;;;;;8.15;7.13;;;;;;;;;;4953861;28;20023;-72
2023/05/13 08:57:59;;;;;;;8.60;7.70;;;;;;;;;;4954108;28;20035;-73
2023/05/13 09:00:25;;;;;;;7.97;7.28;;;;;;;;;;4954586;28;20470;-71
2023/05/13 09:02:50;;;;;;;7.80;6.57;;;;;;;;;;4953398;28;20035;-73
2023/05/13 09:05:16;;;;;;;7.40;6.70;;;;;;;;;;4956752;28;20382;-73
2023/05/13 09:07:41;;;;;;;9.30;7.50;;;;;;;;;;4950739;28;20046;-73
2023/05/13 09:10:09;;;;;;;7.97;7.00;;;;;;;;;;4952818;28;20113;-73
2023/05/13 09:12:53;;;;;;;9.57;7.07;;;;;;;;;;4951062;28;20081;-73
2023/05/13 09:15:19;;;;;;;7.70;7.00;;;;;;;;;;4953494;28;20035;-72
2023/05/13 09:17:50;;;;;;;9.75;8.05;;;;;;;;;;4957100;28;20104;-73
2023/05/13 09:20:16;;;;;;;10.57;7.75;;;;;;;;;;4956208;28;20133;-72
2023/05/13 09:22:48;;;;;;;8.13;7.32;;;;;;;;;;4954729;28;20030;-72
2023/05/13 09:25:15;;;;;;;8.98;7.15;;;;;;;;;;4955347;28;20026;-74
2023/05/13 09:27:41;;;;;;;10.60;7.55;;;;;;;;;;4957383;28;20235;-72
2023/05/13 09:30:07;;;;;;;9.15;7.38;;;;;;;;;;4962132;28;20051;-73
2023/05/13 09:32:32;;;;;;;7.65;6.85;;;;;;;;;;4961925;28;20027;-72
2023/05/13 09:35:07;;;;;;;11.02;7.47;;;;;;;;;;4957719;28;20099;-74
2023/05/13 09:37:33;;;;;;;7.38;6.47;;;;;;;;;;4956713;28;20027;-72
2023/05/13 09:39:59;;;;;;;7.97;6.85;;;;;;;;;;4953610;28;20034;-73
2023/05/13 09:42:24;;;;;;;10.57;7.38;;;;;;;;;;4953844;28;20047;-73
2023/05/13 09:44:49;;;;;;;7.50;6.30;;;;;;;;;;4956908;28;20027;-73
2023/05/13 09:47:15;;;;;;;9.48;6.20;;;;;;;;;;4953610;28;20458;-73
2023/05/13 09:49:41;;;;;;;6.88;5.90;;;;;;;;;;4955863;28;20548;-74
2023/05/13 09:52:10;;;;;;;9.13;6.38;;;;;;;;;;4954360;28;20058;-74
2023/05/13 09:54:35;;;;;;;8.57;6.60;;;;;;;;;;4959582;28;20105;-74
2023/05/13 09:57:01;;;;;;;10.68;6.25;;;;;;;;;;4951709;28;20114;-75
2023/05/13 09:59:26;;;;;;;9.80;5.85;;;;;;;;;;4956435;28;20035;-74
2023/05/13 10:01:53;;;;;;;6.47;5.88;;;;;;;;;;4957179;28;20459;-73
2023/05/13 10:04:18;;;;;;;8.82;5.93;;;;;;;;;;4954542;28;20019;-72
2023/05/13 10:06:44;;;;;;;6.72;5.97;;;;;;;;;;4955691;28;20026;-72
2023/05/13 10:09:10;;;;;;;6.88;6.22;;;;;;;;;;4956401;28;20097;-72
2023/05/13 10:11:35;;;;;;;5.95;5.45;;;;;;;;;;4956229;28;20109;-73
2023/05/13 10:14:02;;;;;;;6.63;4.60;;;;;;;;;;4954338;28;20042;-73
2023/05/13 10:16:28;;;;;;;7.50;4.85;;;;;;;;;;4953744;28;20035;-73
2023/05/13 10:18:55;;;;;;;7.25;5.70;;;;;;;;;;4952469;28;20035;-73
2023/05/13 10:21:20;;;;;;;7.03;5.10;;;;;;;;;;4954963;28;20039;-73
2023/05/13 10:23:46;;;;;;;8.90;6.53;;;;;;;;;;4953173;28;20419;-71
2023/05/13 10:26:12;;;;;;;7.97;5.88;;;;;;;;;;4952717;28;20031;-73
2023/05/13 10:28:37;;;;;;;5.63;4.72;;;;;;;;;;4957678;28;20046;-73
2023/05/13 10:31:03;;;;;;;9.68;5.18;;;;;;;;;;4952883;28;20090;-73
2023/05/13 10:33:29;;;;;;;7.60;4.95;;;;;;;;;;4955947;28;20060;-73
2023/05/13 10:36:00;;;;;;;8.55;5.63;;;;;;;;;;4955099;28;20450;-74
2023/05/13 10:38:31;;;;;;;6.60;4.90;;;;;;;;;;4957751;28;20034;-72
2023/05/13 10:41:03;;;;;;;5.32;4.82;;;;;;;;;;4956680;28;20042;-72
2023/05/13 10:43:29;;;;;;;6.93;5.40;;;;;;;;;;4953875;28;20062;-72
2023/05/13 10:45:59;;;;;;;10.82;5.50;;;;;;;;;;4946847;28;20026;-73
2023/05/13 10:48:24;;;;;;;6.25;4.78;;;;;;;;;;4952903;28;20374;-74
2023/05/13 10:50:54;;;;;;;8.02;4.97;;;;;;;;;;4955041;28;20110;-73
2023/05/13 10:53:30;;;;;;;5.43;4.75;;;;;;;;;;4955149;28;20031;-73
2023/05/13 10:55:58;;;;;;;6.03;4.53;;;;;;;;;;4954617;28;20125;-73
2023/05/13 10:58:49;;;;;;;6.13;4.30;;;;;;;;;;4954137;28;20124;-74
2023/05/13 11:01:16;;;;;;;5.47;4.22;;;;;;;;;;4934911;29;20039;-75
2023/05/13 11:03:50;;;;;;;4.50;3.92;;;;;;;;;;4935090;29;20043;-73
2023/05/13 11:06:17;;;;;;;5.28;4.55;;;;;;;;;;4936489;29;20095;-74
2023/05/13 11:08:43;;;;;;;6.88;4.70;;;;;;;;;;4938227;28;20031;-73
2023/05/13 11:11:29;;;;;;;10.18;4.60;;;;;;;;;;4933836;29;20131;-74
2023/05/13 11:14:07;;;;;;;7.53;4.53;;;;;;;;;;4935809;29;20447;-72
2023/05/13 11:16:33;;;;;;;6.40;4.20;;;;;;;;;;4934928;29;20138;-71
2023/05/13 11:19:00;;;;;;;6.05;3.90;;;;;;;;;;4932089;29;20035;-75
2023/05/13 11:21:30;;;;;;;4.22;3.83;;;;;;;;;;4934667;29;20590;-73
2023/05/13 11:23:55;;;;;;;;;;;;;;;;;;4934142;29;20042;-72
2023/05/13 11:26:21;;;;;;;5.28;3.90;;;;;;;;;;4937083;29;20358;-72
2023/05/13 11:29:02;;;;;;;8.45;3.97;;;;;;;;;;4933003;29;20031;-72
2023/05/13 11:31:42;;;;;;;5.10;3.92;;;;;;;;;;4933446;29;20047;-74
2023/05/13 11:34:08;;;;;;;;;;;;;;;;;;4931317;29;20082;-73
2023/05/13 11:36:34;;;;;;;5.78;4.22;;;;;;;;;;4931683;29;20259;-73
2023/05/13 11:39:06;;;;;;;5.88;3.92;;;;;;;;;;4947260;28;20117;-73
2023/05/13 11:41:32;;;;;;;7.57;4.22;;;;;;;;;;4943584;28;20133;-72
2023/05/13 11:43:58;;;;;;;6.88;3.85;;;;;;;;;;4940259;28;20118;-73
2023/05/13 11:46:24;;;;;;;5.70;4.20;;;;;;;;;;4957462;28;20022;-73
2023/05/13 11:48:50;;;;;;;4.95;3.85;;;;;;;;;;4942675;28;20054;-73
2023/05/13 11:51:18;;;;;;;9.30;4.18;;;;;;;;;;4944397;28;20538;-72
2023/05/13 11:53:43;;;;;;;6.85;4.07;;;;;;;;;;4942278;28;20031;-74
2023/05/13 11:56:12;;;;;;;7.45;4.47;;;;;;;;;;4951387;28;20035;-78
2023/05/13 11:58:37;;;;;;;6.30;3.73;;;;;;;;;;4939185;28;20027;-76
2023/05/13 12:01:03;;;;;;;10.45;4.22;;;;;;;;;;4942811;28;20038;-74
2023/05/13 12:03:28;;;;;;;5.63;4.70;;;;;;;;;;4940112;28;20419;-74
2023/05/13 12:06:04;;;;;;;7.20;4.80;;;;;;;;;;4941969;28;20110;-74
2023/05/13 12:08:29;;;;;;;6.45;4.88;;;;;;;;;;4938741;28;20035;-75
2023/05/13 12:10:55;;;;;;;7.43;5.70;;;;;;;;;;4947499;28;20031;-74
2023/05/13 12:13:20;;;;;;;8.02;3.88;;;;;;;;;;4935626;28;20031;-75
2023/05/13 12:15:46;;;;;;;4.47;3.58;;;;;;;;;;4941706;28;20035;-76
2023/05/13 12:18:11;;;;;;;6.40;3.58;;;;;;;;;;4939140;28;21005;-75
2023/05/13 12:20:37;;;;;;;12.05;3.80;;;;;;;;;;4938853;28;20105;-76
2023/05/13 12:23:03;;;;;;;6.88;3.75;;;;;;;;;;4933676;28;20587;-73
2023/05/13 12:25:31;;;;;;;9.75;3.70;;;;;;;;;;4940851;28;20023;-74
2023/05/13 12:28:17;;;;;;;4.53;3.67;;;;;;;;;;4949693;28;20127;-75
2023/05/13 12:30:42;;;;;;;5.63;4.03;;;;;;;;;;4940394;28;20090;-77
2023/05/13 12:33:12;;;;;;;6.30;3.55;;;;;;;;;;4939081;28;20051;-76
2023/05/13 12:35:37;;;;;;;7.25;4.32;;;;;;;;;;4943832;28;20031;-75
2023/05/13 12:38:03;;;;;;;6.68;4.30;;;;;;;;;;4941490;28;20548;-77
2023/05/13 12:40:29;;;;;;;5.45;3.75;;;;;;;;;;4941679;28;20439;-75
2023/05/13 12:42:58;;;;;;;5.82;3.92;;;;;;;;;;4942551;28;20058;-75
2023/05/13 12:45:27;;;;;;;5.95;4.57;;;;;;;;;;4944108;28;20046;-77
2023/05/13 12:47:52;;;;;;;;;;;;;;;;;;4941472;28;20483;-75
2023/05/13 12:50:18;;;;;;;5.17;4.00;;;;;;;;;;4940281;28;19918;-75
2023/05/13 12:52:43;;;;;;;6.60;5.85;;;;;;;;;;4947455;28;20073;-76
2023/05/13 12:55:09;;;;;;;9.15;4.05;;;;;;;;;;4946921;28;20031;-75
2023/05/13 12:57:34;;;;;;;6.10;3.40;;;;;;;;;;4946906;28;20030;-74
2023/05/13 12:59:59;;;;;;;8.35;4.00;;;;;;;;;;4946101;28;20041;-75
2023/05/13 13:02:25;;;;;;;4.70;4.15;;;;;;;;;;4945756;28;20328;-75
2023/05/13 13:04:51;;;;;;;7.82;5.32;;;;;;;;;;4944681;28;20058;-76
2023/05/13 13:07:16;;;;;;;14.07;5.43;;;;;;;;;;4948546;28;20041;-75
2023/05/13 13:09:41;;;;;;;8.43;6.70;;;;;;;;;;4949527;28;20027;-75
2023/05/13 13:12:07;;;;;;;7.53;4.60;;;;;;;;;;4943683;28;20343;-75
2023/05/13 13:14:32;;;;;;;5.80;4.75;;;;;;;;;;4948947;28;20031;-75
2023/05/13 13:16:58;;;;;;;6.57;4.32;;;;;;;;;;4944577;28;20039;-74
2023/05/13 13:19:23;;;;;;;6.10;4.68;;;;;;;;;;4945230;28;20109;-75
2023/05/13 13:21:48;;;;;;;7.80;4.75;;;;;;;;;;4947649;28;20033;-73
2023/05/13 13:24:14;;;;;;;7.78;4.65;;;;;;;;;;4949038;28;20371;-75
2023/05/13 13:26:39;;;;;;;6.43;5.00;;;;;;;;;;4954429;28;20328;-75
2023/05/13 13:29:05;;;;;;;5.97;4.28;;;;;;;;;;4944823;28;20030;-76
2023/05/13 13:31:30;;;;;;;5.75;4.00;;;;;;;;;;4943934;28;20370;-76
2023/05/13 13:33:57;;;;;;;6.00;4.30;;;;;;;;;;4940881;28;20462;-74
2023/05/13 13:36:23;;;;;;;6.18;5.47;;;;;;;;;;4947189;28;20145;-74
2023/05/13 13:38:48;;;;;;;5.78;4.47;;;;;;;;;;4945531;28;20111;-76
2023/05/13 13:41:14;;;;;;;5.85;4.28;;;;;;;;;;4940577;28;20047;-74
2023/05/13 13:43:39;;;;;;;12.90;10.40;;;;;;;;;;4948857;28;20070;-76
2023/05/13 13:46:04;;;;;;;6.75;5.13;;;;;;;;;;4955656;28;20440;-73
2023/05/13 13:48:30;;;;;;;8.02;5.05;;;;;;;;;;4956551;28;20053;-75
2023/05/13 13:50:57;;;;;;;7.15;5.78;;;;;;;;;;4951227;28;20026;-75
2023/05/13 13:53:22;;;;;;;8.20;5.93;;;;;;;;;;4944919;28;20038;-76
2023/05/13 13:55:48;;;;;;;7.05;6.03;;;;;;;;;;4944500;28;20023;-75
2023/05/13 13:58:14;;;;;;;5.88;5.30;;;;;;;;;;4943431;28;20037;-74
2023/05/13 14:00:39;;;;;;;5.95;5.30;;;;;;;;;;4943397;28;20038;-75
2023/05/13 14:03:05;;;;;;;10.77;6.15;;;;;;;;;;4944622;28;20027;-75
2023/05/13 14:05:30;;;;;;;7.95;5.00;;;;;;;;;;4949908;28;20145;-75
2023/05/13 14:07:56;;;;;;;8.52;6.00;;;;;;;;;;4944459;28;20063;-75
2023/05/13 14:10:21;;;;;;;6.82;4.80;;;;;;;;;;4942276;28;20038;-76
2023/05/13 14:12:46;;;;;;;5.43;4.93;;;;;;;;;;4946146;28;20030;-74
2023/05/13 14:15:12;;;;;;;8.90;4.55;;;;;;;;;;4946449;28;20026;-75
2023/05/13 14:17:37;;;;;;;7.40;5.05;;;;;;;;;;4944033;28;20031;-74
2023/05/13 14:20:03;;;;;;;4.65;4.22;;;;;;;;;;4945042;28;20046;-77
2023/05/13 14:22:29;;;;;;;7.20;4.40;;;;;;;;;;4944001;28;20415;-75